Time;durP1;ratioP1;P1;durP2;ratioP2;P2;SDS_P1;SDS_P2;PMS_P1;PMS_P2;Temp;Humidity;BMP_temperature;BMP_pressure;BME280_temperature;BME280_humidity;BME280_pressure;Samples;Min_cycle;Max_cycle;Signal;HPM_P1;HPM_P2
2023/12/15 00:00:18;;;;;;;0.60;0.60;;;;;;;6.25;78.87;94726.50;4966503;28;20216;-72
2023/12/15 00:02:45;;;;;;;0.50;0.50;;;;;;;6.30;78.50;94721.72;4971751;28;20231;-71
2023/12/15 00:05:11;;;;;;;0.73;0.57;;;;;;;6.59;77.82;94722.59;4989837;28;20315;-71
2023/12/15 00:07:36;;;;;;;0.50;0.40;;;;;;;6.51;78.05;94722.44;4987704;28;20204;-73
2023/12/15 00:10:02;;;;;;;0.53;0.50;;;;;;;6.53;77.82;94727.56;4983114;28;20222;-71
2023/12/15 00:12:27;;;;;;;1.23;0.70;;;;;;;6.57;78.00;94726.31;4969272;28;20232;-71
2023/12/15 00:14:52;;;;;;;0.60;0.60;;;;;;;6.37;78.55;94726.28;4972072;28;20220;-73
2023/12/15 00:17:18;;;;;;;0.60;0.60;;;;;;;6.40;78.34;94730.41;4983518;28;20224;-74
2023/12/15 00:19:44;;;;;;;0.83;0.80;;;;;;;6.48;78.03;94734.97;4985484;28;20188;-73
2023/12/15 00:22:10;;;;;;;0.60;0.50;;;;;;;6.45;77.79;94733.44;4982837;28;20243;-72
2023/12/15 00:24:35;;;;;;;0.40;0.40;;;;;;;6.36;77.99;94736.84;4975593;28;20228;-72
2023/12/15 00:27:00;;;;;;;0.50;0.50;;;;;;;6.42;78.08;94735.50;4988090;28;20259;-78
2023/12/15 00:29:26;;;;;;;0.60;0.60;;;;;;;6.54;77.48;94752.69;4987991;28;20318;-73
2023/12/15 00:31:51;;;;;;;0.60;0.50;;;;;;;6.70;77.19;94749.59;4987737;28;20187;-75
2023/12/15 00:34:17;;;;;;;0.67;0.67;;;;;;;6.50;77.54;94751.34;4987252;28;20205;-80
2023/12/15 00:36:42;;;;;;;1.23;0.57;;;;;;;6.51;77.86;94745.97;4977943;28;20248;-74
2023/12/15 00:39:08;;;;;;;0.63;0.57;;;;;;;6.50;77.71;94757.38;4978625;28;20306;-77
2023/12/15 00:41:33;;;;;;;0.50;0.50;;;;;;;6.51;77.44;94753.78;4988171;28;20245;-74
2023/12/15 00:43:58;;;;;;;0.60;0.60;;;;;;;6.49;77.93;94760.94;4986378;28;20372;-75
2023/12/15 00:46:24;;;;;;;0.60;0.60;;;;;;;6.56;77.42;94759.44;4989993;28;20198;-74
2023/12/15 00:48:49;;;;;;;0.63;0.50;;;;;;;6.51;78.06;94764.25;4982339;28;20215;-73
2023/12/15 00:51:15;;;;;;;1.77;0.60;;;;;;;6.58;78.14;94777.63;4981435;28;20278;-74
2023/12/15 00:53:40;;;;;;;1.23;0.77;;;;;;;6.51;78.45;94769.47;4978960;28;20228;-73
2023/12/15 00:56:07;;;;;;;0.50;0.50;;;;;;;6.59;78.16;94780.06;4984995;28;20184;-74
2023/12/15 00:58:32;;;;;;;0.53;0.50;;;;;;;6.57;78.08;94781.16;4985599;28;20259;-79
2023/12/15 01:00:58;;;;;;;0.57;0.57;;;;;;;6.60;77.44;94768.69;4981789;28;20224;-75
2023/12/15 01:03:23;;;;;;;1.27;0.90;;;;;;;6.52;78.18;94781.59;4978960;28;20216;-75
2023/12/15 01:05:50;;;;;;;0.73;0.70;;;;;;;6.58;78.53;94786.28;4985945;28;20302;-74
2023/12/15 01:08:16;;;;;;;0.50;0.50;;;;;;;6.53;79.10;94775.41;4982407;28;20310;-75
2023/12/15 01:10:42;;;;;;;0.70;0.70;;;;;;;6.56;79.15;94779.53;4989176;28;20219;-76
2023/12/15 01:13:08;;;;;;;0.50;0.50;;;;;;;6.55;79.42;94785.72;4985508;28;20215;-76
2023/12/15 01:15:34;;;;;;;0.50;0.50;;;;;;;6.66;79.00;94782.19;4981457;28;20274;-76
2023/12/15 01:17:59;;;;;;;0.70;0.70;;;;;;;6.63;79.04;94773.63;4980399;28;20254;-75
2023/12/15 01:20:25;;;;;;;1.50;0.57;;;;;;;6.56;78.59;94779.53;4982951;28;20220;-76
2023/12/15 01:22:50;;;;;;;0.40;0.40;;;;;;;6.63;78.98;94781.47;4968295;28;20188;-76
2023/12/15 01:25:16;;;;;;;1.13;0.63;;;;;;;6.54;79.35;94789.28;4990447;28;20276;-76
2023/12/15 01:27:41;;;;;;;0.50;0.50;;;;;;;6.55;79.62;94783.94;4981940;28;20216;-76
2023/12/15 01:30:07;;;;;;;0.57;0.50;;;;;;;6.60;79.33;94797.44;4984034;28;20224;-75
2023/12/15 01:32:32;;;;;;;1.10;0.50;;;;;;;6.65;78.77;94804.84;4977943;28;20220;-76
2023/12/15 01:34:58;;;;;;;0.50;0.50;;;;;;;6.71;78.55;94806.09;4970321;28;20184;-75
2023/12/15 01:37:24;;;;;;;0.70;0.70;;;;;;;6.53;79.12;94796.28;4984301;28;20207;-76
2023/12/15 01:39:50;;;;;;;0.57;0.57;;;;;;;6.50;79.66;94793.94;4981324;28;20269;-75
2023/12/15 01:42:16;;;;;;;0.80;0.60;;;;;;;6.67;79.14;94794.28;4981100;28;20311;-74
2023/12/15 01:44:41;;;;;;;1.10;0.77;;;;;;;6.67;79.30;94810.78;4982708;28;20240;-75
2023/12/15 01:47:10;;;;;;;0.97;0.83;;;;;;;6.72;78.62;94803.34;4981190;28;20253;-75
2023/12/15 01:49:36;;;;;;;0.70;0.60;;;;;;;6.62;78.83;94803.31;4992397;28;20179;-75
2023/12/15 01:52:01;;;;;;;0.50;0.50;;;;;;;6.65;79.07;94811.84;4980585;28;20216;-75
2023/12/15 01:54:27;;;;;;;0.67;0.67;;;;;;;6.51;79.74;94803.44;4981150;28;20220;-75
2023/12/15 01:56:52;;;;;;;0.53;0.53;;;;;;;6.52;79.85;94812.94;4982778;28;20270;-74
2023/12/15 01:59:17;;;;;;;0.93;0.70;;;;;;;6.62;79.47;94805.94;4983571;28;20219;-75
2023/12/15 02:01:43;;;;;;;0.93;0.80;;;;;;;6.76;78.92;94803.91;4982532;28;20218;-75
2023/12/15 02:04:09;;;;;;;0.80;0.70;;;;;;;6.59;79.54;94803.59;4986656;28;20227;-75
2023/12/15 02:06:35;;;;;;;0.80;0.80;;;;;;;6.61;79.47;94806.09;4966890;28;20378;-75
2023/12/15 02:09:00;;;;;;;0.70;0.70;;;;;;;6.57;79.99;94800.28;4971513;28;20304;-74
2023/12/15 02:11:25;;;;;;;0.80;0.77;;;;;;;6.53;80.05;94809.34;4978377;28;20221;-74
2023/12/15 02:13:51;;;;;;;0.70;0.70;;;;;;;6.69;79.80;94815.88;4958673;28;20197;-74
2023/12/15 02:16:16;;;;;;;1.13;0.83;;;;;;;6.50;80.12;94809.63;4986718;28;20240;-75
2023/12/15 02:18:42;;;;;;;1.00;0.90;;;;;;;6.56;80.49;94819.53;4983368;28;20242;-74
2023/12/15 02:21:07;;;;;;;0.93;0.90;;;;;;;6.30;80.96;94826.97;4982188;28;20243;-74
2023/12/15 02:23:32;;;;;;;1.10;1.00;;;;;;;6.27;81.18;94818.59;4984710;28;20220;-74
2023/12/15 02:25:58;;;;;;;0.87;0.83;;;;;;;6.26;81.46;94822.16;4981761;28;20195;-74
2023/12/15 02:28:23;;;;;;;1.03;0.80;;;;;;;6.36;81.00;94833.47;4982521;28;20208;-73
2023/12/15 02:30:49;;;;;;;0.87;0.80;;;;;;;6.33;80.69;94828.50;4982883;28;20222;-74
2023/12/15 02:33:14;;;;;;;0.90;0.90;;;;;;;6.34;80.69;94835.41;4980776;28;20235;-73
2023/12/15 02:35:41;;;;;;;1.17;1.07;;;;;;;6.35;80.82;94842.25;4980732;28;20224;-73
2023/12/15 02:38:07;;;;;;;1.20;1.10;;;;;;;6.28;81.07;94841.97;4985505;28;20192;-73
2023/12/15 02:40:35;;;;;;;1.37;1.27;;;;;;;6.39;81.41;94838.44;4981895;28;20308;-73
2023/12/15 02:43:00;;;;;;;1.47;1.23;;;;;;;6.26;81.50;94835.22;4990084;28;20251;-73
2023/12/15 02:45:26;;;;;;;1.30;1.20;;;;;;;6.17;81.18;94845.50;4986631;28;20228;-72
2023/12/15 02:47:51;;;;;;;1.20;1.10;;;;;;;6.17;81.42;94848.09;4986154;28;20228;-73
2023/12/15 02:50:17;;;;;;;1.63;1.53;;;;;;;6.25;81.21;94842.22;4980423;28;20231;-73
2023/12/15 02:52:42;;;;;;;1.50;1.40;;;;;;;6.14;82.12;94845.72;4980237;28;20195;-75
2023/12/15 02:55:08;;;;;;;1.60;1.50;;;;;;;6.22;81.96;94846.88;4963964;28;20267;-75
2023/12/15 02:57:35;;;;;;;1.93;1.77;;;;;;;6.03;82.44;94851.03;4959827;28;20244;-75
2023/12/15 03:00:00;;;;;;;2.50;2.30;;;;;;;6.01;83.01;94854.72;4975655;28;20224;-73
2023/12/15 03:02:26;;;;;;;2.17;1.97;;;;;;;6.19;82.53;94864.44;4976838;28;20239;-74
2023/12/15 03:04:51;;;;;;;2.60;2.40;;;;;;;6.25;81.69;94860.47;4990531;28;20231;-75
2023/12/15 03:07:16;;;;;;;3.10;2.90;;;;;;;6.12;82.52;94870.31;4984214;28;20191;-75
2023/12/15 03:09:42;;;;;;;3.13;2.57;;;;;;;6.09;82.10;94875.78;4979064;28;20231;-75
2023/12/15 03:12:08;;;;;;;3.47;3.17;;;;;;;6.15;82.35;94872.69;4984036;28;20243;-76
2023/12/15 03:14:34;;;;;;;2.90;2.70;;;;;;;6.37;81.84;94869.09;4982701;28;20228;-76
2023/12/15 03:17:00;;;;;;;3.23;2.93;;;;;;;6.28;81.45;94867.22;4981711;28;20185;-74
2023/12/15 03:19:25;;;;;;;3.93;3.57;;;;;;;6.21;82.26;94881.78;4989804;28;20187;-74
2023/12/15 03:21:51;;;;;;;3.97;3.57;;;;;;;6.21;82.74;94881.78;4985259;28;20234;-74
2023/12/15 03:24:16;;;;;;;4.17;3.87;;;;;;;6.22;81.73;94876.41;4974164;28;20231;-74
2023/12/15 03:26:41;;;;;;;4.37;3.97;;;;;;;6.22;81.75;94884.25;4982234;28;20227;-74
2023/12/15 03:29:07;;;;;;;4.73;4.33;;;;;;;6.32;82.01;94879.91;4979403;28;20490;-74
2023/12/15 03:31:33;;;;;;;4.60;4.20;;;;;;;6.36;82.01;94877.84;4984841;28;20184;-74
2023/12/15 03:33:58;;;;;;;5.07;4.57;;;;;;;6.29;81.58;94897.63;4982928;28;20220;-74
2023/12/15 03:36:23;;;;;;;5.43;4.93;;;;;;;6.08;82.23;94888.00;4982817;28;20227;-73
2023/12/15 03:38:49;;;;;;;6.80;6.17;;;;;;;6.09;82.72;94894.88;4977127;28;20317;-73
2023/12/15 03:41:14;;;;;;;6.47;5.87;;;;;;;6.14;82.17;94897.94;4983221;28;20243;-73
2023/12/15 03:43:40;;;;;;;6.93;6.10;;;;;;;6.09;82.31;94887.03;4991983;28;20191;-73
2023/12/15 03:46:05;;;;;;;5.87;5.33;;;;;;;6.08;82.02;94882.78;4985453;28;20224;-73
2023/12/15 03:48:31;;;;;;;7.23;6.53;;;;;;;6.10;81.80;94880.88;4991232;28;20310;-73
2023/12/15 03:50:56;;;;;;;10.77;7.17;;;;;;;6.10;81.91;94882.69;4988606;28;20294;-73
2023/12/15 03:53:22;;;;;;;9.43;7.17;;;;;;;6.03;82.22;94890.16;4997632;28;20216;-74
2023/12/15 03:55:47;;;;;;;7.10;6.40;;;;;;;6.17;81.38;94896.84;4987465;28;20192;-73
2023/12/15 03:58:13;;;;;;;7.97;7.17;;;;;;;6.10;80.99;94898.34;4964948;28;20259;-74
2023/12/15 04:00:38;;;;;;;8.20;7.40;;;;;;;5.96;81.85;94895.09;4980705;28;20228;-75
2023/12/15 04:03:03;;;;;;;8.47;7.67;;;;;;;5.99;81.73;94899.22;4992037;28;20220;-75
2023/12/15 04:05:29;;;;;;;8.00;7.23;;;;;;;6.14;81.39;94902.34;4987665;28;20235;-75
2023/12/15 04:07:54;;;;;;;8.77;7.97;;;;;;;6.12;81.17;94904.22;4984362;28;20196;-74
2023/12/15 04:10:20;;;;;;;8.10;7.30;;;;;;;6.14;81.31;94903.16;4986046;28;20206;-74
2023/12/15 04:12:45;;;;;;;8.93;7.97;;;;;;;6.25;80.73;94904.88;4985452;28;20258;-74
2023/12/15 04:15:10;;;;;;;8.77;7.83;;;;;;;5.97;81.51;94896.72;4986389;28;20227;-74
2023/12/15 04:17:36;;;;;;;8.87;8.03;;;;;;;5.97;80.99;94903.75;4983878;28;20223;-74
2023/12/15 04:20:01;;;;;;;9.27;8.37;;;;;;;5.91;81.43;94905.03;4984218;28;20194;-74
2023/12/15 04:22:27;;;;;;;9.13;8.23;;;;;;;5.98;81.75;94913.22;4976840;28;20209;-74
2023/12/15 04:24:53;;;;;;;9.80;8.70;;;;;;;5.99;81.76;94919.25;4974266;28;20221;-74
2023/12/15 04:27:19;;;;;;;9.80;8.90;;;;;;;6.04;82.03;94915.34;4976976;28;20216;-74
2023/12/15 04:29:44;;;;;;;10.30;9.23;;;;;;;6.02;81.50;94911.19;4986584;28;20240;-74
2023/12/15 04:32:09;;;;;;;10.73;9.73;;;;;;;6.01;81.91;94907.72;4977470;28;20222;-74
2023/12/15 04:34:37;;;;;;;9.60;8.60;;;;;;;6.00;81.96;94916.53;4992040;28;20191;-73
2023/12/15 04:37:03;;;;;;;10.60;9.70;;;;;;;6.07;81.63;94912.47;4987813;28;20259;-74
2023/12/15 04:39:28;;;;;;;9.63;8.43;;;;;;;6.07;81.67;94919.47;4983943;28;20304;-75
2023/12/15 04:41:53;;;;;;;9.63;8.70;;;;;;;6.09;81.31;94920.16;4989001;28;20220;-74
2023/12/15 04:44:19;;;;;;;10.73;9.53;;;;;;;6.13;81.53;94927.63;4981774;28;20235;-73
2023/12/15 04:46:44;;;;;;;11.00;9.97;;;;;;;6.24;81.31;94933.75;4994131;28;20212;-73
2023/12/15 04:49:10;;;;;;;11.40;9.37;;;;;;;6.09;82.04;94936.63;4980302;28;20310;-73
2023/12/15 04:51:36;;;;;;;10.67;9.67;;;;;;;6.10;81.67;94933.09;4970220;28;20224;-75
2023/12/15 04:54:01;;;;;;;9.90;8.97;;;;;;;5.96;82.09;94936.84;4967274;28;20216;-73
2023/12/15 04:56:27;;;;;;;9.83;8.83;;;;;;;5.87;82.57;94955.00;4975916;28;20219;-76
2023/12/15 04:58:52;;;;;;;9.97;9.10;;;;;;;5.90;82.77;94957.34;4987405;28;20184;-74
2023/12/15 05:01:17;;;;;;;10.77;9.77;;;;;;;6.03;82.24;94950.22;4982715;28;20363;-72
2023/12/15 05:03:44;;;;;;;9.67;8.80;;;;;;;6.07;82.05;94958.63;4985044;28;20216;-81
2023/12/15 05:06:17;;;;;;;10.63;9.63;;;;;;;5.99;81.87;94961.88;4969662;28;20251;-77
2023/12/15 05:08:43;;;;;;;9.90;9.00;;;;;;;6.04;81.96;94953.63;4980310;28;20224;-75
2023/12/15 05:11:09;;;;;;;10.10;9.17;;;;;;;6.08;81.30;94955.88;4984271;28;20200;-79
2023/12/15 05:13:34;;;;;;;10.20;9.20;;;;;;;6.06;81.74;94960.41;4989378;28;20222;-78
2023/12/15 05:16:00;;;;;;;10.30;9.40;;;;;;;6.01;81.76;94966.94;4996725;28;20219;-79
2023/12/15 05:18:25;;;;;;;7.90;7.10;;;;;;;6.01;81.41;94969.56;4988121;28;20275;-78
2023/12/15 05:20:51;;;;;;;9.47;8.63;;;;;;;6.00;81.55;94967.91;4994720;28;20235;-76
2023/12/15 05:23:16;;;;;;;9.03;8.13;;;;;;;6.13;81.47;94973.78;4978285;28;20239;-78
2023/12/15 05:25:42;;;;;;;9.40;8.47;;;;;;;6.01;81.31;94974.78;4991549;28;20203;-78
2023/12/15 05:28:07;;;;;;;9.07;8.17;;;;;;;6.02;81.16;94979.06;4988348;28;20227;-79
2023/12/15 05:30:32;;;;;;;9.47;8.57;;;;;;;6.13;80.77;94985.06;4980960;28;20223;-76
2023/12/15 05:32:58;;;;;;;9.97;9.07;;;;;;;6.17;80.42;94986.47;4986729;28;20228;-79
2023/12/15 05:35:24;;;;;;;10.00;9.10;;;;;;;6.03;81.04;94984.13;4984381;28;20228;-79
2023/12/15 05:37:50;;;;;;;8.40;7.60;;;;;;;6.06;80.75;94996.94;4985257;28;20185;-76
2023/12/15 05:40:16;;;;;;;7.67;6.97;;;;;;;6.20;80.48;95001.03;4994427;28;20231;-77
2023/12/15 05:42:42;;;;;;;8.83;7.37;;;;;;;6.25;78.93;94998.88;4991083;28;20203;-80
2023/12/15 05:45:08;;;;;;;9.57;7.00;;;;;;;6.44;78.70;94999.97;4980080;28;20232;-77
2023/12/15 05:47:36;;;;;;;8.87;7.40;;;;;;;6.38;78.70;94994.31;4980346;28;20223;-78
2023/12/15 05:50:01;;;;;;;9.10;7.90;;;;;;;6.45;78.68;94999.84;4997347;28;20196;-77
2023/12/15 05:52:27;;;;;;;7.97;7.17;;;;;;;6.39;78.56;94990.75;4982650;28;20258;-77
2023/12/15 05:54:52;;;;;;;8.60;7.67;;;;;;;6.34;78.68;95011.19;4987130;28;20215;-76
2023/12/15 05:57:18;;;;;;;8.53;7.73;;;;;;;6.42;78.53;95002.72;4983319;28;20287;-77
2023/12/15 05:59:43;;;;;;;8.53;7.63;;;;;;;6.48;77.82;95009.22;4983294;28;20331;-80
2023/12/15 06:02:11;;;;;;;9.73;7.83;;;;;;;6.41;77.65;95008.88;4974046;28;20224;-78
2023/12/15 06:04:37;;;;;;;8.07;7.13;;;;;;;6.49;77.30;95010.88;4977541;28;20216;-79
2023/12/15 06:07:03;;;;;;;8.27;7.13;;;;;;;6.55;76.98;95020.84;5004039;28;20250;-77
2023/12/15 06:09:28;;;;;;;7.57;6.87;;;;;;;6.50;76.98;95025.59;4987181;28;20229;-76
2023/12/15 06:11:54;;;;;;;9.33;7.50;;;;;;;6.49;77.08;95016.91;4993467;28;20257;-77
2023/12/15 06:14:22;;;;;;;8.53;7.73;;;;;;;6.48;76.80;95020.50;4987376;28;20222;-76
2023/12/15 06:16:48;;;;;;;8.53;7.30;;;;;;;6.48;76.67;95030.13;4988507;28;20188;-78
2023/12/15 06:19:14;;;;;;;8.87;7.30;;;;;;;6.53;76.58;95031.41;4979531;28;20239;-79
2023/12/15 06:21:40;;;;;;;9.27;8.07;;;;;;;6.56;76.41;95023.31;4987312;28;20285;-75
2023/12/15 06:24:06;;;;;;;9.57;8.57;;;;;;;6.63;76.98;95041.94;4992769;28;20219;-78
2023/12/15 06:26:31;;;;;;;9.47;8.50;;;;;;;6.58;77.11;95026.63;4988331;28;20225;-76
2023/12/15 06:28:57;;;;;;;9.60;8.70;;;;;;;6.57;77.78;95045.84;4995534;28;20207;-78
2023/12/15 06:31:25;;;;;;;9.23;8.33;;;;;;;6.48;77.64;95043.19;4993434;28;20185;-77
2023/12/15 06:33:51;;;;;;;10.03;9.00;;;;;;;6.52;77.50;95047.19;4989282;28;20310;-78
2023/12/15 06:36:18;;;;;;;12.17;9.63;;;;;;;6.47;77.92;95044.97;4989649;28;20307;-78
2023/12/15 06:38:44;;;;;;;11.43;10.23;;;;;;;6.48;78.14;95043.19;5005032;28;20261;-76
2023/12/15 06:41:13;;;;;;;11.70;9.40;;;;;;;6.54;78.34;95051.31;4984845;28;20204;-76
2023/12/15 06:43:42;;;;;;;11.27;10.07;;;;;;;6.42;78.55;95056.75;5001482;28;20218;-75
2023/12/15 06:46:09;;;;;;;11.07;9.97;;;;;;;6.34;79.04;95060.00;4986136;28;20262;-73
2023/12/15 06:48:34;;;;;;;11.30;10.20;;;;;;;6.30;79.04;95058.56;4996864;28;20218;-75
2023/12/15 06:51:00;;;;;;;12.17;10.97;;;;;;;6.22;79.85;95056.56;4989645;28;20219;-78
2023/12/15 06:53:26;;;;;;;11.63;10.43;;;;;;;6.22;79.91;95069.63;4985027;28;20238;-76
2023/12/15 06:55:52;;;;;;;11.83;10.63;;;;;;;6.14;80.14;95066.81;4997862;28;20198;-75
2023/12/15 06:58:17;;;;;;;13.00;10.80;;;;;;;6.22;80.13;95081.84;5007720;28;20194;-76
2023/12/15 07:00:43;;;;;;;12.40;11.07;;;;;;;6.23;80.24;95079.13;4991549;28;20223;-75
2023/12/15 07:03:08;;;;;;;13.23;11.17;;;;;;;6.08;80.62;95081.19;4990305;28;20338;-77
2023/12/15 07:05:34;;;;;;;13.73;11.40;;;;;;;6.16;80.50;95093.63;4983066;28;20223;-75
2023/12/15 07:08:01;;;;;;;12.97;11.67;;;;;;;6.16;80.44;95099.66;4974036;28;20192;-78
2023/12/15 07:10:26;;;;;;;14.47;12.00;;;;;;;6.05;81.00;95097.09;4990979;28;20208;-78
2023/12/15 07:12:51;;;;;;;12.93;10.90;;;;;;;6.00;81.01;95094.03;5005802;28;20230;-77
2023/12/15 07:15:17;;;;;;;15.27;12.63;;;;;;;6.07;81.55;95097.81;5011579;28;20230;-79
2023/12/15 07:17:43;;;;;;;12.90;10.67;;;;;;;6.01;81.62;95095.66;4989988;28;20310;-79
2023/12/15 07:20:10;;;;;;;15.07;13.67;;;;;;;6.08;81.25;95096.03;4988528;28;20297;-79
2023/12/15 07:22:35;;;;;;;15.07;13.47;;;;;;;6.10;81.58;95096.75;4983460;28;20227;-73
2023/12/15 07:25:01;;;;;;;15.03;13.63;;;;;;;6.18;81.07;95103.00;4992379;28;20332;-75
2023/12/15 07:27:26;;;;;;;15.07;13.57;;;;;;;6.21;81.05;95096.69;4995807;28;20229;-75
2023/12/15 07:29:52;;;;;;;14.00;12.60;;;;;;;6.18;80.80;95089.94;4986261;28;20224;-74
2023/12/15 07:32:18;;;;;;;14.93;13.43;;;;;;;6.05;81.10;95091.88;4979824;28;20218;-73
2023/12/15 07:34:44;;;;;;;12.77;10.90;;;;;;;6.02;81.61;95094.72;4991241;28;20245;-74
2023/12/15 07:37:10;;;;;;;13.80;12.40;;;;;;;6.16;80.89;95101.47;5000734;28;20232;-72
2023/12/15 07:39:35;;;;;;;12.27;11.07;;;;;;;6.29;80.52;95119.59;4987031;28;20214;-74
2023/12/15 07:42:01;;;;;;;13.50;12.10;;;;;;;6.20;80.25;95115.91;4974682;28;20234;-73
2023/12/15 07:44:26;;;;;;;12.63;11.13;;;;;;;6.08;80.92;95122.94;4968016;28;20224;-70
2023/12/15 07:46:54;;;;;;;12.80;11.50;;;;;;;6.13;81.30;95127.81;4972207;28;20275;-71
2023/12/15 07:49:20;;;;;;;14.47;12.97;;;;;;;6.16;80.98;95131.00;4983905;28;20195;-70
2023/12/15 07:51:46;;;;;;;13.87;12.53;;;;;;;6.12;80.63;95129.59;4984639;28;20226;-73
2023/12/15 07:54:11;;;;;;;14.23;12.73;;;;;;;6.20;80.73;95142.03;4982477;28;20221;-73
2023/12/15 07:56:37;;;;;;;12.90;11.60;;;;;;;6.15;80.76;95137.19;4982521;28;20286;-73
2023/12/15 07:59:02;;;;;;;14.40;11.17;;;;;;;6.23;80.96;95140.94;4991104;28;20221;-71
2023/12/15 08:01:28;;;;;;;13.43;12.03;;;;;;;6.23;80.95;95144.41;4991972;28;20271;-69
2023/12/15 08:03:53;;;;;;;13.20;11.67;;;;;;;6.29;80.78;95156.16;4981338;28;20215;-71
2023/12/15 08:06:19;;;;;;;14.63;12.40;;;;;;;6.03;81.32;95156.41;4972233;28;20240;-71
2023/12/15 08:08:46;;;;;;;13.53;12.13;;;;;;;6.25;81.32;95165.16;4977504;28;20223;-72
2023/12/15 08:11:13;;;;;;;12.43;11.13;;;;;;;6.33;80.51;95178.44;4982425;28;20236;-71
2023/12/15 08:13:39;;;;;;;14.17;12.67;;;;;;;6.20;80.98;95189.03;4977343;28;20190;-72
2023/12/15 08:16:06;;;;;;;14.70;13.23;;;;;;;6.15;81.62;95192.03;4973940;28;20216;-71
2023/12/15 08:18:32;;;;;;;13.10;11.80;;;;;;;6.27;81.12;95186.78;4980007;28;20215;-73
2023/12/15 08:20:58;;;;;;;13.53;12.30;;;;;;;6.24;81.54;95189.63;4990637;28;20223;-71
2023/12/15 08:23:24;;;;;;;15.90;14.23;;;;;;;6.30;81.16;95184.75;4995995;28;20229;-73
2023/12/15 08:25:50;;;;;;;12.60;11.33;;;;;;;6.32;81.10;95185.47;4988885;28;20191;-71
2023/12/15 08:28:15;;;;;;;15.10;12.27;;;;;;;6.35;80.84;95184.38;4993811;28;20225;-74
2023/12/15 08:30:41;;;;;;;13.07;11.77;;;;;;;6.29;81.05;95187.50;4991019;28;20250;-75
2023/12/15 08:33:10;;;;;;;13.83;11.83;;;;;;;6.26;81.35;95182.50;4983035;28;20219;-73
2023/12/15 08:35:35;;;;;;;12.50;11.07;;;;;;;6.25;81.27;95192.09;4988643;28;20286;-74
2023/12/15 08:38:00;;;;;;;12.47;11.23;;;;;;;6.27;81.13;95189.38;4989818;28;20274;-73
2023/12/15 08:40:26;;;;;;;11.83;10.67;;;;;;;6.20;81.46;95191.63;4987364;28;20219;-71
2023/12/15 08:42:51;;;;;;;13.07;11.87;;;;;;;6.30;81.29;95194.34;4991511;28;20223;-77
2023/12/15 08:45:17;;;;;;;12.40;11.10;;;;;;;6.22;81.86;95197.56;4993138;28;20231;-69
2023/12/15 08:47:43;;;;;;;13.10;11.80;;;;;;;6.31;81.13;95196.03;4988677;28;20222;-71
2023/12/15 08:50:08;;;;;;;14.67;13.20;;;;;;;6.42;80.99;95203.03;4990694;28;20199;-69
2023/12/15 08:52:34;;;;;;;13.73;11.43;;;;;;;6.38;80.82;95199.81;4990286;28;20195;-68
2023/12/15 08:55:00;;;;;;;13.20;12.00;;;;;;;6.34;80.98;95196.63;4989883;28;20227;-71
2023/12/15 08:57:25;;;;;;;12.90;11.60;;;;;;;6.39;80.90;95201.47;4971730;28;20260;-68
2023/12/15 08:59:51;;;;;;;14.77;11.63;;;;;;;6.28;81.03;95194.50;4985909;28;20242;-72
2023/12/15 09:02:17;;;;;;;12.33;11.07;;;;;;;6.26;81.04;95195.56;4982526;28;20261;-70
2023/12/15 09:04:42;;;;;;;13.73;11.60;;;;;;;6.27;81.08;95199.81;4991721;28;20270;-69
2023/12/15 09:07:08;;;;;;;12.70;11.37;;;;;;;6.40;80.92;95200.53;4986437;28;20223;-69
2023/12/15 09:09:34;;;;;;;13.17;11.40;;;;;;;6.31;81.04;95196.03;4984609;28;20224;-68
2023/12/15 09:12:00;;;;;;;13.20;11.90;;;;;;;6.25;81.00;95191.28;4986356;28;20218;-66
2023/12/15 09:14:26;;;;;;;13.60;12.20;;;;;;;6.34;81.24;95191.41;4987037;28;20269;-67
2023/12/15 09:16:52;;;;;;;14.53;12.60;;;;;;;6.26;81.46;95183.34;4987830;28;20247;-70
2023/12/15 09:19:17;;;;;;;14.60;13.07;;;;;;;6.29;80.86;95190.94;4994411;28;20194;-68
2023/12/15 09:21:43;;;;;;;14.80;12.57;;;;;;;6.21;81.17;95190.69;4979325;28;20221;-68
2023/12/15 09:24:08;;;;;;;14.03;11.97;;;;;;;6.25;80.85;95192.09;4971126;28;20263;-70
2023/12/15 09:26:34;;;;;;;14.30;12.90;;;;;;;6.31;81.04;95196.03;4972719;28;20281;-72
2023/12/15 09:28:59;;;;;;;15.40;12.50;;;;;;;6.31;81.05;95196.03;4988566;28;20280;-73
2023/12/15 09:31:25;;;;;;;15.03;13.43;;;;;;;6.38;80.62;95190.19;4987140;28;20233;-71
2023/12/15 09:33:50;;;;;;;16.70;12.67;;;;;;;6.36;80.98;95193.88;4990050;28;20222;-71
2023/12/15 09:36:16;;;;;;;14.20;12.60;;;;;;;6.35;80.67;95202.66;4988610;28;20234;-71
2023/12/15 09:38:41;;;;;;;14.03;12.30;;;;;;;6.25;80.60;95186.06;4985181;28;20307;-74
2023/12/15 09:41:07;;;;;;;14.23;12.90;;;;;;;6.26;80.92;95196.41;4991546;28;20207;-70
2023/12/15 09:43:33;;;;;;;14.13;12.67;;;;;;;6.31;80.83;95185.59;4978140;28;20199;-72
2023/12/15 09:45:59;;;;;;;14.97;12.90;;;;;;;6.34;80.73;95182.72;4980901;28;20227;-71
2023/12/15 09:48:28;;;;;;;13.97;12.40;;;;;;;6.42;80.42;95201.22;4996708;28;20226;-71
2023/12/15 09:50:56;;;;;;;15.17;13.57;;;;;;;6.40;80.25;95190.91;4995094;28;20230;-71
2023/12/15 09:53:22;;;;;;;14.43;12.93;;;;;;;6.54;79.83;95200.25;4993489;28;20231;-70
2023/12/15 09:55:51;;;;;;;15.13;13.03;;;;;;;6.51;80.12;95190.03;4989097;28;20235;-72
2023/12/15 09:58:16;;;;;;;16.30;14.13;;;;;;;6.49;80.27;95194.56;4993958;28;20234;-71
2023/12/15 10:00:42;;;;;;;16.37;14.47;;;;;;;6.49;80.75;95196.34;4971005;28;20302;-71
2023/12/15 10:03:07;;;;;;;20.33;14.37;;;;;;;6.42;80.73;95197.81;4988432;28;20242;-71
2023/12/15 10:05:34;;;;;;;18.83;14.60;;;;;;;6.47;80.86;95190.41;4993483;28;20227;-74
2023/12/15 10:08:00;;;;;;;18.27;14.67;;;;;;;6.53;80.70;95193.38;4992917;28;20187;-73
2023/12/15 10:10:26;;;;;;;16.40;14.47;;;;;;;6.59;80.31;95190.25;4989507;28;20245;-71
2023/12/15 10:12:55;;;;;;;17.10;14.63;;;;;;;6.62;79.71;95200.44;4990533;28;20215;-74
2023/12/15 10:15:21;;;;;;;13.70;12.30;;;;;;;6.57;79.82;95207.81;4988988;28;20215;-74
2023/12/15 10:17:49;;;;;;;14.77;13.27;;;;;;;6.62;79.75;95210.91;4991642;28;20273;-67
2023/12/15 10:20:14;;;;;;;15.57;13.80;;;;;;;6.59;79.67;95208.53;4981348;28;20219;-72
2023/12/15 10:22:40;;;;;;;15.60;13.83;;;;;;;6.60;79.80;95211.97;4987215;28;20227;-69
2023/12/15 10:25:17;;;;;;;16.10;13.83;;;;;;;6.62;79.65;95210.91;4985060;28;20215;-71
2023/12/15 10:27:42;;;;;;;18.20;14.93;;;;;;;6.53;80.36;95216.88;4969305;28;20226;-70
2023/12/15 10:30:08;;;;;;;16.63;14.70;;;;;;;6.47;80.59;95211.28;4983661;28;20245;-69
2023/12/15 10:32:34;;;;;;;15.97;14.27;;;;;;;6.51;80.95;95224.00;4994032;28;20219;-74
2023/12/15 10:35:00;;;;;;;17.37;14.70;;;;;;;6.46;80.96;95209.66;4991112;28;20361;-72
2023/12/15 10:37:27;;;;;;;16.63;14.90;;;;;;;6.59;80.42;95210.34;4987296;28;20207;-81
2023/12/15 10:39:54;;;;;;;16.40;14.37;;;;;;;6.56;80.52;95208.78;4989966;28;20225;-71
2023/12/15 10:42:21;;;;;;;16.73;13.90;;;;;;;6.53;80.60;95211.66;4971679;28;20239;-68
2023/12/15 10:44:46;;;;;;;17.13;14.63;;;;;;;6.54;80.58;95212.47;4981142;28;20222;-72
2023/12/15 10:47:12;;;;;;;17.10;15.10;;;;;;;6.55;80.80;95208.94;4989531;28;20231;-69
2023/12/15 10:49:39;;;;;;;20.03;16.70;;;;;;;6.63;80.60;95211.75;4984489;28;20191;-70
2023/12/15 10:52:06;;;;;;;19.27;16.10;;;;;;;6.71;79.98;95216.34;4986091;28;20263;-71
2023/12/15 10:54:34;;;;;;;19.77;16.40;;;;;;;6.75;80.18;95228.22;4990852;28;20230;-69
2023/12/15 10:56:59;;;;;;;20.27;17.03;;;;;;;6.72;79.95;95228.47;4985346;28;20226;-71
2023/12/15 10:59:27;;;;;;;18.90;16.60;;;;;;;6.63;80.18;95233.50;4968615;28;20220;-69
2023/12/15 11:01:53;;;;;;;19.23;16.87;;;;;;;6.66;80.64;95231.59;4966754;28;20207;-69
2023/12/15 11:04:23;;;;;;;17.20;15.03;;;;;;;6.68;80.50;95237.50;4983959;28;20183;-71
2023/12/15 11:06:49;;;;;;;19.17;16.00;;;;;;;6.77;79.95;95239.41;4971821;28;20228;-71
2023/12/15 11:09:29;;;;;;;17.27;14.37;;;;;;;6.81;78.96;95235.56;4969281;28;20218;-71
2023/12/15 11:12:34;;;;;;;16.87;13.03;;;;;;;6.79;79.04;95234.84;4965173;28;20224;-68
2023/12/15 11:15:06;;;;;;;15.40;13.40;;;;;;;6.62;78.96;95233.59;4982899;28;20270;-72
2023/12/15 11:17:32;;;;;;;14.47;12.97;;;;;;;6.61;79.24;95234.56;4983184;28;20238;-72
2023/12/15 11:20:06;;;;;;;15.17;13.57;;;;;;;6.53;79.20;95226.50;4992593;28;20191;-70
2023/12/15 11:23:08;;;;;;;14.27;12.53;;;;;;;6.66;78.89;95232.41;4985335;28;20223;-71
2023/12/15 11:25:45;;;;;;;14.67;13.17;;;;;;;6.70;78.32;95236.44;4990016;28;20237;-71
2023/12/15 11:28:16;;;;;;;15.40;12.97;;;;;;;6.72;78.34;95236.31;4984802;28;20226;-68